F/V Starlight — WDB8157 — position and weather

sailwx.info

Track history (hours):
 
Tides and Currents Weather Stations Pressure Air Temp Water Temp Dewpoint Dewpoint Depression Visibility Wind Speed Wind Dir Waves Ship Positions

F/V Starlight

Owner: STARLIGHT INC., VINALHAVEN, ME. More information available from US FCC via Universal Licensing System and Coast Guard Vessel Documentation Center.

Last reported at 2018-Jan-10 03:39 UTC. Time now 2018-Feb-21 07:22 UTC.
Position N 42°19' W 070°31'.
Warning: this ship's position is 42 days out of date.

Length 30 m.

Type: Fishing. MMSI: 366953940.

Date/timePositionNaut miles runAvg speedWind from/ knotsBaromVisibWave heightAir tempDewpointWater temp
2018-Jan-10 03:39N 42°19' W 070°31'110.0
2018-Jan-10 03:30N 42°21' W 070°31'510.1
2018-Jan-10 03:00N 42°26' W 070°32'510.0
2018-Jan-10 02:31N 42°31' W 070°32'510.0
2018-Jan-10 02:01N 42°36' W 070°33'5 9.6
2018-Jan-10 01:30N 42°40' W 070°32'5 9.8
2018-Jan-10 01:00N 42°45' W 070°30'510.1
2018-Jan-10 00:30N 42°50' W 070°28'95 8.7
2018-Jan-09 13:34N 44°03' W 069°04'1 9.9
2018-Jan-09 13:30N 44°03' W 069°04'3 6.4
2018-Jan-09 12:59N 44°06' W 069°06'1 1.1
2018-Jan-09 12:30N 44°07' W 069°06'0 0.0
2018-Jan-09 11:59N 44°07' W 069°06'0 0.0
2018-Jan-09 11:29N 44°07' W 069°06'0 0.0
2018-Jan-09 10:58N 44°07' W 069°06'0 0.0
2018-Jan-09 10:29N 44°07' W 069°06'0 0.0
2018-Jan-09 10:00N 44°07' W 069°06'0 0.0
2018-Jan-09 09:29N 44°07' W 069°06'0 0.0
2018-Jan-09 09:00N 44°07' W 069°06'0 0.0
2018-Jan-09 08:27N 44°07' W 069°06'0 0.0
2018-Jan-09 07:59N 44°07' W 069°06'0 0.0
2018-Jan-09 07:29N 44°07' W 069°06'0 0.0
2018-Jan-09 06:58N 44°07' W 069°06'0 0.0
2018-Jan-09 06:29N 44°07' W 069°06'0 0.0
2018-Jan-09 05:56N 44°07' W 069°06'0 0.0
2018-Jan-09 05:28N 44°07' W 069°06'0 0.0
2018-Jan-09 04:59N 44°07' W 069°06'0 0.0
2018-Jan-09 04:30N 44°07' W 069°06'0 0.0
2018-Jan-09 03:58N 44°07' W 069°06'0 0.0
2018-Jan-09 03:29N 44°07' W 069°06'0 0.0
2018-Jan-09 02:57N 44°07' W 069°06'0 0.0
2018-Jan-09 02:30N 44°07' W 069°06'0 0.0
2018-Jan-09 01:59N 44°07' W 069°06'0 0.0
2018-Jan-09 01:29N 44°07' W 069°06'0 0.0
2018-Jan-09 00:59N 44°07' W 069°06'0 0.0
2018-Jan-09 00:28N 44°07' W 069°06'0 0.0
2018-Jan-08 23:59N 44°07' W 069°06'0 0.0
2018-Jan-08 23:28N 44°07' W 069°06'0 0.0
2018-Jan-08 22:57N 44°07' W 069°06'0 0.0
2018-Jan-08 22:28N 44°07' W 069°06'0 0.0
2018-Jan-08 21:59N 44°07' W 069°06'0 0.0
2018-Jan-08 21:29N 44°07' W 069°06'0 0.0
2018-Jan-08 20:58N 44°07' W 069°06'0 0.0
2018-Jan-08 20:29N 44°07' W 069°06'0 0.0
2018-Jan-08 20:00N 44°07' W 069°06'0 0.0
2018-Jan-08 19:27N 44°07' W 069°06'0 0.0
2018-Jan-08 18:58N 44°07' W 069°06'0 0.0
2018-Jan-08 18:30N 44°07' W 069°06'0 0.0
2018-Jan-08 17:58N 44°07' W 069°06'0 0.0
2018-Jan-08 17:29N 44°07' W 069°06'0 0.0
2018-Jan-08 16:58N 44°07' W 069°06'0 0.0
2018-Jan-08 16:29N 44°07' W 069°06'0 0.0
2018-Jan-08 16:00N 44°07' W 069°06'0 0.0
2018-Jan-08 15:27N 44°07' W 069°06'0 0.0
2018-Jan-08 14:58N 44°07' W 069°06'0 0.0
2018-Jan-08 14:30N 44°07' W 069°06'0 0.0
2018-Jan-08 13:58N 44°07' W 069°06'0 0.0
2018-Jan-08 13:28N 44°07' W 069°06'0 0.0
2018-Jan-08 13:00N 44°07' W 069°06'0 0.0
2018-Jan-08 12:30N 44°07' W 069°06'0 0.0
2018-Jan-08 11:57N 44°07' W 069°06'0 0.0
2018-Jan-08 11:30N 44°07' W 069°06'0 0.0
2018-Jan-08 10:58N 44°07' W 069°06'0 0.0
2018-Jan-08 10:29N 44°07' W 069°06'0 0.0
2018-Jan-08 10:00N 44°07' W 069°06'0 0.0
2018-Jan-08 09:28N 44°07' W 069°06'0 0.0
2018-Jan-08 08:58N 44°07' W 069°06'0 0.0
2018-Jan-08 08:30N 44°07' W 069°06'0 0.0
2018-Jan-08 07:58N 44°07' W 069°06'0 0.0
2018-Jan-08 07:28N 44°07' W 069°06'0 0.0
2018-Jan-08 06:59N 44°07' W 069°06'0 0.0
2018-Jan-08 06:30N 44°07' W 069°06'0 0.0
2018-Jan-08 05:57N 44°07' W 069°06'0 0.0
2018-Jan-08 05:28N 44°07' W 069°06'0 0.0
2018-Jan-08 04:59N 44°07' W 069°06'0 0.0
2018-Jan-08 04:30N 44°07' W 069°06'0 0.0
2018-Jan-08 03:58N 44°07' W 069°06'0 0.0
2018-Jan-08 03:29N 44°07' W 069°06'0 0.0
2018-Jan-08 03:00N 44°07' W 069°06'0 0.0
2018-Jan-08 02:28N 44°07' W 069°06'0 0.0
2018-Jan-08 01:59N 44°07' W 069°06'0 0.0
2018-Jan-08 01:29N 44°07' W 069°06'0 0.0
2018-Jan-08 01:00N 44°07' W 069°06'0 0.0
2018-Jan-08 00:27N 44°07' W 069°06'0 0.0
2018-Jan-07 23:58N 44°07' W 069°06'0 0.0
2018-Jan-07 23:29N 44°07' W 069°06'0 0.0
2018-Jan-07 23:00N 44°07' W 069°06'0 0.0
2018-Jan-07 22:28N 44°07' W 069°06'0 0.0
2018-Jan-07 22:00N 44°07' W 069°06'0 0.0
2018-Jan-07 21:30N 44°07' W 069°06'0 0.0
2018-Jan-07 20:58N 44°07' W 069°06'0 0.0
2018-Jan-07 20:30N 44°07' W 069°06'0 0.0
2018-Jan-07 19:58N 44°07' W 069°06'0 0.0
2018-Jan-07 19:29N 44°07' W 069°06'0 0.0
2018-Jan-07 19:00N 44°07' W 069°06'0 0.0
2018-Jan-07 18:28N 44°07' W 069°06'0 0.0
2018-Jan-07 17:59N 44°07' W 069°06'0 0.0
2018-Jan-07 17:27N 44°07' W 069°06'0 0.0
2018-Jan-07 16:57N 44°07' W 069°06'0 0.0
2018-Jan-07 16:29N 44°07' W 069°06'0 0.0
2018-Jan-07 15:57N 44°07' W 069°06'0 0.0
2018-Jan-07 15:26N 44°07' W 069°06'0 0.0
2018-Jan-07 14:57N 44°07' W 069°06'0 0.0
2018-Jan-07 14:28N 44°07' W 069°06'0 0.0
2018-Jan-07 13:59N 44°07' W 069°06'0 0.0
2018-Jan-07 13:28N 44°07' W 069°06'0 0.0
2018-Jan-07 12:59N 44°07' W 069°06'0 0.0
2018-Jan-07 12:29N 44°07' W 069°06'0 0.0
2018-Jan-07 11:59N 44°07' W 069°06'0 0.0
2018-Jan-07 11:27N 44°07' W 069°06'0 0.0
2018-Jan-07 10:59N 44°07' W 069°06'0 0.0
2018-Jan-07 10:30N 44°07' W 069°06'0 0.0
2018-Jan-07 10:00N 44°07' W 069°06'0 0.0
2018-Jan-07 09:29N 44°07' W 069°06'0 0.0
2018-Jan-07 08:58N 44°07' W 069°06'0 0.0
2018-Jan-07 08:29N 44°07' W 069°06'0 0.0
2018-Jan-07 07:59N 44°07' W 069°06'0 0.0
2018-Jan-07 07:30N 44°07' W 069°06'0 0.0
2018-Jan-07 07:00N 44°07' W 069°06'0 0.0
2018-Jan-07 06:29N 44°07' W 069°06'0 0.0
2018-Jan-07 05:58N 44°07' W 069°06'0 0.0
2018-Jan-07 05:29N 44°07' W 069°06'0 0.0
2018-Jan-07 04:59N 44°07' W 069°06'0 0.0
2018-Jan-07 04:29N 44°07' W 069°06'0 0.0
2018-Jan-07 03:59N 44°07' W 069°06'0 0.0
2018-Jan-07 03:30N 44°07' W 069°06'0 0.0
2018-Jan-07 02:58N 44°07' W 069°06'0 0.0
2018-Jan-07 02:30N 44°07' W 069°06'0 0.0
2018-Jan-07 02:00N 44°07' W 069°06'0 0.0
2018-Jan-07 01:29N 44°07' W 069°06'0 0.0
2018-Jan-07 00:29N 44°07' W 069°06'0 0.0
2018-Jan-07 00:00N 44°07' W 069°06'0 0.0
2018-Jan-06 23:29N 44°07' W 069°06'0 0.0
2018-Jan-06 23:00N 44°07' W 069°06'0 0.0
2018-Jan-06 22:29N 44°07' W 069°06'0 0.0
2018-Jan-06 21:58N 44°07' W 069°06'0 0.0
2018-Jan-06 21:29N 44°07' W 069°06'0 0.0
2018-Jan-06 20:59N 44°07' W 069°06'0 0.0
2018-Jan-06 20:29N 44°07' W 069°06'0 0.0
2018-Jan-06 20:00N 44°07' W 069°06'0 0.0
2018-Jan-06 19:30N 44°07' W 069°06'0 0.0
2018-Jan-06 18:59N 44°07' W 069°06'0 0.0
2018-Jan-06 18:29N 44°07' W 069°06'0 0.0
2018-Jan-06 17:59N 44°07' W 069°06'0 0.0
2018-Jan-06 17:28N 44°07' W 069°06'0 0.0
2018-Jan-06 16:59N 44°07' W 069°06'0 0.0
2018-Jan-06 16:29N 44°07' W 069°06'0 0.0
2018-Jan-06 16:00N 44°07' W 069°06'0 0.0
2018-Jan-06 15:29N 44°07' W 069°06'0 0.0
2018-Jan-06 14:58N 44°07' W 069°06'0 0.0
2018-Jan-06 14:29N 44°07' W 069°06'0 0.0
2018-Jan-06 13:59N 44°07' W 069°06'0 0.0
2018-Jan-06 13:29N 44°07' W 069°06'0 0.0
2018-Jan-06 13:00N 44°07' W 069°06'0 0.0
2018-Jan-06 12:30N 44°07' W 069°06'0 0.0
2018-Jan-06 11:59N 44°07' W 069°06'0 0.0
2018-Jan-06 11:30N 44°07' W 069°06'0 0.0
2018-Jan-06 10:59N 44°07' W 069°06'0 0.0
2018-Jan-06 10:30N 44°07' W 069°06'0 0.0
2018-Jan-06 09:59N 44°07' W 069°06'0 0.0
2018-Jan-06 09:30N 44°07' W 069°06'0 0.0
2018-Jan-06 08:58N 44°07' W 069°06'0 0.0
2018-Jan-06 08:29N 44°07' W 069°06'0 0.0
2018-Jan-06 08:00N 44°07' W 069°06'0 0.0
2018-Jan-06 07:30N 44°07' W 069°06'0 0.0
2018-Jan-06 06:58N 44°07' W 069°06'0 0.0
2018-Jan-06 06:29N 44°07' W 069°06'0 0.0
2018-Jan-06 05:59N 44°07' W 069°06'0 0.0
2018-Jan-06 05:29N 44°07' W 069°06'0 0.0
2018-Jan-06 04:59N 44°07' W 069°06'0 0.0
2018-Jan-06 04:29N 44°07' W 069°06'0 0.0
2018-Jan-06 03:59N 44°07' W 069°06'0 0.0
2018-Jan-06 03:29N 44°07' W 069°06'0 0.0
2018-Jan-06 03:00N 44°07' W 069°06'0 0.0
2018-Jan-06 02:30N 44°07' W 069°06'0 0.0
2018-Jan-06 02:00N 44°07' W 069°06'0 0.0
2018-Jan-06 01:27N 44°07' W 069°06'0 0.0
2018-Jan-06 00:59N 44°07' W 069°06'0 0.0
2018-Jan-06 00:27N 44°07' W 069°06'0 0.0
2018-Jan-05 23:59N 44°07' W 069°06'0 0.0
2018-Jan-05 23:30N 44°07' W 069°06'0 0.0
2018-Jan-05 22:58N 44°07' W 069°06'0 0.0
2018-Jan-05 22:30N 44°07' W 069°06'0 0.0
2018-Jan-05 22:00N 44°07' W 069°06'0 0.0
2018-Jan-05 21:29N 44°07' W 069°06'0 0.0
2018-Jan-05 21:00N 44°07' W 069°06'0 0.0
2018-Jan-05 20:30N 44°07' W 069°06'0 0.0
2018-Jan-05 19:59N 44°07' W 069°06'0 0.0
2018-Jan-05 19:29N 44°07' W 069°06'0 0.0
2018-Jan-05 19:00N 44°07' W 069°06'0 0.0
2018-Jan-05 18:29N 44°07' W 069°06'0 0.0
2018-Jan-05 17:59N 44°07' W 069°06'0 0.0
2018-Jan-05 17:30N 44°07' W 069°06'0 0.0
2018-Jan-05 16:59N 44°07' W 069°06'0 0.0
2018-Jan-05 16:28N 44°07' W 069°06'0 0.0
2018-Jan-05 15:58N 44°07' W 069°06'0 0.0
2018-Jan-05 15:30N 44°07' W 069°06'0 0.0
2018-Jan-05 14:59N 44°07' W 069°06'0 0.0
2018-Jan-05 14:29N 44°07' W 069°06'0 0.0
2018-Jan-05 13:59N 44°07' W 069°06'0 0.0
2018-Jan-05 13:28N 44°07' W 069°06'0 0.0
2018-Jan-05 12:59N 44°07' W 069°06'0 0.0
2018-Jan-05 12:30N 44°07' W 069°06'0 0.0
2018-Jan-05 12:00N 44°07' W 069°06'0 0.0
2018-Jan-05 11:30N 44°07' W 069°06'0 0.0
2018-Jan-05 10:59N 44°07' W 069°06'0 0.0
2018-Jan-05 10:29N 44°07' W 069°06'0 0.0
2018-Jan-05 09:58N 44°07' W 069°06'0 0.0
2018-Jan-05 09:29N 44°07' W 069°06'0 0.0
2018-Jan-05 08:57N 44°07' W 069°06'0 0.0
2018-Jan-05 08:28N 44°07' W 069°06'0 0.0
2018-Jan-05 08:00N 44°07' W 069°06'0 0.0
2018-Jan-05 07:28N 44°07' W 069°06'0 0.0
2018-Jan-05 07:00N 44°07' W 069°06'0 0.0
2018-Jan-05 06:30N 44°07' W 069°06'0 0.0
2018-Jan-05 05:59N 44°07' W 069°06'0 0.0
2018-Jan-05 05:30N 44°07' W 069°06'0 0.0
2018-Jan-05 05:00N 44°07' W 069°06'0 0.0
2018-Jan-05 04:29N 44°07' W 069°06'0 0.0
2018-Jan-05 03:58N 44°07' W 069°06'0 0.0
2018-Jan-05 03:30N 44°07' W 069°06'0 0.0
2018-Jan-05 02:59N 44°07' W 069°06'0 0.0
2018-Jan-05 02:29N 44°07' W 069°06'0 0.0
2018-Jan-05 02:00N 44°07' W 069°06'0 0.0
2018-Jan-05 01:29N 44°07' W 069°06'0 0.0
2018-Jan-05 00:59N 44°07' W 069°06'0 0.0
2018-Jan-05 00:29N 44°07' W 069°06'0 0.0
2018-Jan-04 23:59N 44°07' W 069°06'0 0.0
2018-Jan-04 23:30N 44°07' W 069°06'0 0.0
2018-Jan-04 22:59N 44°07' W 069°06'0 0.0
2018-Jan-04 22:28N 44°07' W 069°06'0 0.0
2018-Jan-04 22:00N 44°07' W 069°06'0 0.0
2018-Jan-04 21:29N 44°07' W 069°06'0 0.0
2018-Jan-04 21:00N 44°07' W 069°06'0 0.0
2018-Jan-04 20:30N 44°07' W 069°06'0 0.0
2018-Jan-04 19:59N 44°07' W 069°06'0 0.0
2018-Jan-04 19:30N 44°07' W 069°06'0 0.0
2018-Jan-04 19:00N 44°07' W 069°06'0 0.0
2018-Jan-04 18:30N 44°07' W 069°06'0 0.0
2018-Jan-04 17:58N 44°07' W 069°06'0 0.0
2018-Jan-04 17:29N 44°07' W 069°06'0 0.0
2018-Jan-04 16:59N 44°07' W 069°06'0 0.0
2018-Jan-04 16:29N 44°07' W 069°06'0 0.0
2018-Jan-04 16:00N 44°07' W 069°06'0 0.0
2018-Jan-04 15:29N 44°07' W 069°06'0 0.0
2018-Jan-04 15:00N 44°07' W 069°06'0 0.0
2018-Jan-04 14:29N 44°07' W 069°06'0 0.0
2018-Jan-04 13:58N 44°07' W 069°06'0 0.0
2018-Jan-04 13:30N 44°07' W 069°06'0 0.0
2018-Jan-04 13:00N 44°07' W 069°06'0 0.0
2018-Jan-04 12:30N 44°07' W 069°06'0 0.0
2018-Jan-04 11:58N 44°07' W 069°06'0 0.0
2018-Jan-04 11:29N 44°07' W 069°06'0 0.0
2018-Jan-04 11:00N 44°07' W 069°06'0 0.0
2018-Jan-04 10:30N 44°07' W 069°06'0 0.0
2018-Jan-04 10:00N 44°07' W 069°06'0 0.0
2018-Jan-04 09:29N 44°07' W 069°06'0 0.0
2018-Jan-04 09:00N 44°07' W 069°06'0 0.0
2018-Jan-04 08:30N 44°07' W 069°06'0 0.0
2018-Jan-04 07:59N 44°07' W 069°06'0 0.0
2018-Jan-04 07:30N 44°07' W 069°06'0 0.0
2018-Jan-04 07:00N 44°07' W 069°06'0 0.0
2018-Jan-04 06:30N 44°07' W 069°06'0 0.0
2018-Jan-04 05:59N 44°07' W 069°06'0 0.0
2018-Jan-04 05:30N 44°07' W 069°06'0 0.0
2018-Jan-04 04:58N 44°07' W 069°06'0 0.0
2018-Jan-04 04:30N 44°07' W 069°06'0 0.0
2018-Jan-04 04:00N 44°07' W 069°06'0 0.0
2018-Jan-04 03:30N 44°07' W 069°06'0 0.0
2018-Jan-04 03:00N 44°07' W 069°06'0 0.0
2018-Jan-04 02:30N 44°07' W 069°06'0 0.0
2018-Jan-04 01:58N 44°07' W 069°06'0 0.0
2018-Jan-04 01:29N 44°07' W 069°06'0 0.0
2018-Jan-04 01:00N 44°07' W 069°06'0 0.0
2018-Jan-04 00:30N 44°07' W 069°06'0 0.0
2018-Jan-03 23:59N 44°07' W 069°06'0 0.0
2018-Jan-03 23:30N 44°07' W 069°06'0 0.0
2018-Jan-03 23:00N 44°07' W 069°06'0 0.0
2018-Jan-03 22:29N 44°07' W 069°06'0 0.0
2018-Jan-03 21:58N 44°07' W 069°06'0 0.0
2018-Jan-03 21:30N 44°07' W 069°06'0 0.0
2018-Jan-03 21:00N 44°07' W 069°06'0 0.0
2018-Jan-03 20:29N 44°07' W 069°06'0 0.0
2018-Jan-03 19:59N 44°07' W 069°06'0 0.0
2018-Jan-03 19:30N 44°07' W 069°06'0 0.0
2018-Jan-03 19:00N 44°07' W 069°06'0 0.0
2018-Jan-03 18:30N 44°07' W 069°06'0 0.0
2018-Jan-03 18:00N 44°07' W 069°06'0 0.0
2018-Jan-03 17:28N 44°07' W 069°06'0 0.0
2018-Jan-03 17:00N 44°07' W 069°06'0 0.0
2018-Jan-03 16:28N 44°07' W 069°06'0 0.0
2018-Jan-03 16:00N 44°07' W 069°06'0 0.0
2018-Jan-03 15:29N 44°07' W 069°06'0 0.0
2018-Jan-03 14:59N 44°07' W 069°06'0 0.0
2018-Jan-03 14:29N 44°07' W 069°06'0 0.0
2018-Jan-03 13:59N 44°07' W 069°06'0 0.0
2018-Jan-03 13:29N 44°07' W 069°06'0 0.0
2018-Jan-03 13:00N 44°07' W 069°06'0 0.0
2018-Jan-03 12:29N 44°07' W 069°06'0 0.0
2018-Jan-03 12:00N 44°07' W 069°06'0 0.0
2018-Jan-03 11:30N 44°07' W 069°06'0 0.0
2018-Jan-03 11:00N 44°07' W 069°06'0 0.0
2018-Jan-03 10:29N 44°07' W 069°06'0 0.0
2018-Jan-03 09:59N 44°07' W 069°06'0 0.0
2018-Jan-03 09:30N 44°07' W 069°06'0 0.0
2018-Jan-03 08:59N 44°07' W 069°06'0 0.0
2018-Jan-03 08:30N 44°07' W 069°06'0 0.0
2018-Jan-03 08:00N 44°07' W 069°06'0 0.0
2018-Jan-03 07:30N 44°07' W 069°06'0 0.0
2018-Jan-03 07:00N 44°07' W 069°06'0 0.0
2018-Jan-03 06:29N 44°07' W 069°06'0 0.0
2018-Jan-03 05:59N 44°07' W 069°06'0 0.0
2018-Jan-03 05:30N 44°07' W 069°06'0 0.0
2018-Jan-03 04:59N 44°07' W 069°06'0 0.0
2018-Jan-03 04:29N 44°07' W 069°06'0 0.0
2018-Jan-03 04:00N 44°07' W 069°06'0 0.0
2018-Jan-03 03:29N 44°07' W 069°06'0 0.0
2018-Jan-03 03:00N 44°07' W 069°06'0 0.0
2018-Jan-03 02:29N 44°07' W 069°06'0 0.0
2018-Jan-03 02:00N 44°07' W 069°06'0 0.0
2018-Jan-03 01:30N 44°07' W 069°06'0 0.0
2018-Jan-03 01:00N 44°07' W 069°06'0 0.0
2018-Jan-03 00:29N 44°07' W 069°06'0 0.0
2018-Jan-02 23:59N 44°07' W 069°06'0 0.0
2018-Jan-02 23:30N 44°07' W 069°06'0 0.0
2018-Jan-02 22:59N 44°07' W 069°06'0 0.0
2018-Jan-02 22:30N 44°07' W 069°06'0 0.0
2018-Jan-02 21:59N 44°07' W 069°06'0 0.0
2018-Jan-02 21:29N 44°07' W 069°06'0 0.0
2018-Jan-02 20:59N 44°07' W 069°06'0 0.0
2018-Jan-02 20:30N 44°07' W 069°06'0 0.0
2018-Jan-02 19:59N 44°07' W 069°06'0 0.0
2018-Jan-02 19:29N 44°07' W 069°06'0 0.0
2018-Jan-02 19:00N 44°07' W 069°06'0 0.0
2018-Jan-02 18:30N 44°07' W 069°06'0 0.0
2018-Jan-02 18:00N 44°07' W 069°06'0 0.0
2018-Jan-02 17:29N 44°07' W 069°06'0 0.0
2018-Jan-02 16:58N 44°07' W 069°06'0 0.0
2018-Jan-02 16:30N 44°07' W 069°06'0 0.0
2018-Jan-02 15:59N 44°07' W 069°06'0 0.0
2018-Jan-02 15:28N 44°07' W 069°06'0 0.0
2018-Jan-02 14:59N 44°07' W 069°06'0 0.0
2018-Jan-02 14:30N 44°07' W 069°06'0 0.0
2018-Jan-02 14:00N 44°07' W 069°06'0 0.0
2018-Jan-02 13:29N 44°07' W 069°06'0 0.0
2018-Jan-02 12:58N 44°07' W 069°06'0 0.0
2018-Jan-02 12:30N 44°07' W 069°06'0 0.0
2018-Jan-02 12:00N 44°07' W 069°06'0 0.0
2018-Jan-02 11:30N 44°07' W 069°06'0 0.0
2018-Jan-02 10:58N 44°07' W 069°06'0 0.0
2018-Jan-02 10:30N 44°07' W 069°06'0 0.0
2018-Jan-02 10:00N 44°07' W 069°06'0 0.0
2018-Jan-02 09:28N 44°07' W 069°06'0 0.0
2018-Jan-02 08:29N 44°07' W 069°06'0 0.0
2018-Jan-02 07:58N 44°07' W 069°06'0 0.0
2018-Jan-02 07:30N 44°07' W 069°06'0 0.0
2018-Jan-02 06:54N 44°07' W 069°06'0 0.0
2018-Jan-02 06:30N 44°07' W 069°06'0 0.0
2018-Jan-02 05:59N 44°07' W 069°06'0 0.0
2018-Jan-02 05:30N 44°07' W 069°06'0 0.0
2018-Jan-02 04:28N 44°07' W 069°06'0 0.0
2018-Jan-02 03:59N 44°07' W 069°06'0 0.0
2018-Jan-02 03:29N 44°07' W 069°06'0 0.0
2018-Jan-02 02:59N 44°07' W 069°06'0 0.0
2018-Jan-02 02:29N 44°07' W 069°06'0 0.0
2018-Jan-02 02:01N 44°07' W 069°06'0 0.0
2018-Jan-02 01:29N 44°07' W 069°06'0 0.0
2018-Jan-02 00:59N 44°07' W 069°06'0 0.0
2018-Jan-02 00:30N 44°07' W 069°06'0 0.0
2018-Jan-01 23:59N 44°07' W 069°06'0 0.0
2018-Jan-01 23:30N 44°07' W 069°06'0 0.0
2018-Jan-01 22:58N 44°07' W 069°06'0 0.0
2018-Jan-01 22:29N 44°07' W 069°06'0 0.0
2018-Jan-01 21:59N 44°07' W 069°06'0 0.0
2018-Jan-01 21:29N 44°07' W 069°06'0 0.0
2018-Jan-01 20:59N 44°07' W 069°06'0 0.0
2018-Jan-01 20:29N 44°07' W 069°06'0 0.0
2018-Jan-01 19:58N 44°07' W 069°06'0 0.0
2018-Jan-01 19:29N 44°07' W 069°06'0 0.0
2018-Jan-01 18:58N 44°07' W 069°06'0 0.0
2018-Jan-01 18:30N 44°07' W 069°06'0 0.0
2018-Jan-01 17:58N 44°07' W 069°06'0 0.0
2018-Jan-01 17:28N 44°07' W 069°06'0 0.0
2018-Jan-01 15:00N 44°07' W 069°06'0 0.0
2018-Jan-01 14:30N 44°07' W 069°06'0 0.0
2018-Jan-01 13:59N 44°07' W 069°06'0 0.0
2018-Jan-01 13:30N 44°07' W 069°06'0 0.0
2018-Jan-01 13:00N 44°07' W 069°06'0 0.0
2018-Jan-01 12:00N 44°07' W 069°06'0 0.0
2018-Jan-01 11:29N 44°07' W 069°06'0 0.0
2018-Jan-01 10:59N 44°07' W 069°06'0 0.0
2018-Jan-01 10:28N 44°07' W 069°06'0 0.0
2018-Jan-01 09:59N 44°07' W 069°06'0 0.0
2018-Jan-01 09:30N 44°07' W 069°06'0 0.0
2018-Jan-01 08:28N 44°07' W 069°06'0 0.0
2018-Jan-01 07:59N 44°07' W 069°06'0 0.0
2018-Jan-01 07:30N 44°07' W 069°06'0 0.0
2018-Jan-01 07:00N 44°07' W 069°06'0 0.0
2018-Jan-01 06:00N 44°07' W 069°06'0 0.0
2018-Jan-01 05:30N 44°07' W 069°06'0 0.0
2018-Jan-01 04:59N 44°07' W 069°06'0 0.0
2018-Jan-01 03:58N 44°07' W 069°06'0 0.0
2018-Jan-01 03:29N 44°07' W 069°06'0 0.0
2018-Jan-01 02:59N 44°07' W 069°06'0 0.0
2018-Jan-01 02:30N 44°07' W 069°06'0 0.0
2018-Jan-01 02:00N 44°07' W 069°06'0 0.0
2018-Jan-01 01:29N 44°07' W 069°06'0 0.0
2018-Jan-01 00:28N 44°07' W 069°06'0 0.0
2017-Dec-31 21:00N 44°07' W 069°06'0 0.0
2017-Dec-31 20:29N 44°07' W 069°06'0 0.0
2017-Dec-31 19:58N 44°07' W 069°06'0 0.0
2017-Dec-31 19:30N 44°07' W 069°06'0 0.0
2017-Dec-31 19:00N 44°07' W 069°06'0 0.0
2017-Dec-31 18:30N 44°07' W 069°06'0 0.0
2017-Dec-31 18:00N 44°07' W 069°06'0 0.0
2017-Dec-31 17:30N 44°07' W 069°06'0 0.0
2017-Dec-31 16:59N 44°07' W 069°06'0 0.0
2017-Dec-31 16:30N 44°07' W 069°06'0 0.0
2017-Dec-31 15:58N 44°07' W 069°06'0 0.0
2017-Dec-31 15:28N 44°07' W 069°06'0 0.0
2017-Dec-31 15:00N 44°07' W 069°06'0 0.0
2017-Dec-31 14:30N 44°07' W 069°06'0 0.0
2017-Dec-31 14:00N 44°07' W 069°06'0 0.0
2017-Dec-31 13:30N 44°07' W 069°06'0 0.0
2017-Dec-31 12:59N 44°07' W 069°06'0 0.0
2017-Dec-31 12:29N 44°07' W 069°06'0 0.0
2017-Dec-31 11:59N 44°07' W 069°06'0 0.0
2017-Dec-31 11:30N 44°07' W 069°06'0 0.0
2017-Dec-31 10:59N 44°07' W 069°06'0 0.0
2017-Dec-31 10:29N 44°07' W 069°06'0 0.0
2017-Dec-31 09:58N 44°07' W 069°06'0 0.0
2017-Dec-31 09:30N 44°07' W 069°06'0 0.0
2017-Dec-31 09:00N 44°07' W 069°06'0 0.0
2017-Dec-31 08:30N 44°07' W 069°06'0 0.0
2017-Dec-31 08:00N 44°07' W 069°06'0 0.0
2017-Dec-31 07:29N 44°07' W 069°06'0 0.0
2017-Dec-31 07:00N 44°07' W 069°06'0 0.0
2017-Dec-31 06:28N 44°07' W 069°06'0 0.0
2017-Dec-31 06:00N 44°07' W 069°06'0 0.0
2017-Dec-31 05:28N 44°07' W 069°06'0 0.0
2017-Dec-31 04:58N 44°07' W 069°06'0 0.0
2017-Dec-31 04:30N 44°07' W 069°06'0 0.0
2017-Dec-31 04:00N 44°07' W 069°06'  
Track history (hours):
 
Tides and Currents Weather Stations Pressure Air Temp Water Temp Dewpoint Dewpoint Depression Visibility Wind Speed Wind Dir Waves Ship Positions

F/V Starlight

Owner: STARLIGHT INC., VINALHAVEN, ME. More information available from US FCC via Universal Licensing System and Coast Guard Vessel Documentation Center.

Last reported at 2018-Jan-10 03:39 UTC. Time now 2018-Feb-21 07:22 UTC.
Position N 42°19' W 070°31'.
Warning: this ship's position is 42 days out of date.

Length 30 m.

Type: Fishing. MMSI: 366953940.

Date/timePositionNaut miles runAvg speedWind from/ knotsBaromVisibWave heightAir tempDewpointWater temp
2018-Jan-10 03:39N 42°19' W 070°31'110.0
2018-Jan-10 03:30N 42°21' W 070°31'510.1
2018-Jan-10 03:00N 42°26' W 070°32'510.0
2018-Jan-10 02:31N 42°31' W 070°32'510.0
2018-Jan-10 02:01N 42°36' W 070°33'5 9.6
2018-Jan-10 01:30N 42°40' W 070°32'5 9.8
2018-Jan-10 01:00N 42°45' W 070°30'510.1
2018-Jan-10 00:30N 42°50' W 070°28'95 8.7
2018-Jan-09 13:34N 44°03' W 069°04'1 9.9
2018-Jan-09 13:30N 44°03' W 069°04'3 6.4
2018-Jan-09 12:59N 44°06' W 069°06'1 1.1
2018-Jan-09 12:30N 44°07' W 069°06'0 0.0
2018-Jan-09 11:59N 44°07' W 069°06'0 0.0
2018-Jan-09 11:29N 44°07' W 069°06'0 0.0
2018-Jan-09 10:58N 44°07' W 069°06'0 0.0
2018-Jan-09 10:29N 44°07' W 069°06'0 0.0
2018-Jan-09 10:00N 44°07' W 069°06'0 0.0
2018-Jan-09 09:29N 44°07' W 069°06'0 0.0
2018-Jan-09 09:00N 44°07' W 069°06'0 0.0
2018-Jan-09 08:27N 44°07' W 069°06'0 0.0
2018-Jan-09 07:59N 44°07' W 069°06'0 0.0
2018-Jan-09 07:29N 44°07' W 069°06'0 0.0
2018-Jan-09 06:58N 44°07' W 069°06'0 0.0
2018-Jan-09 06:29N 44°07' W 069°06'0 0.0
2018-Jan-09 05:56N 44°07' W 069°06'0 0.0
2018-Jan-09 05:28N 44°07' W 069°06'0 0.0
2018-Jan-09 04:59N 44°07' W 069°06'0 0.0
2018-Jan-09 04:30N 44°07' W 069°06'0 0.0
2018-Jan-09 03:58N 44°07' W 069°06'0 0.0
2018-Jan-09 03:29N 44°07' W 069°06'0 0.0
2018-Jan-09 02:57N 44°07' W 069°06'0 0.0
2018-Jan-09 02:30N 44°07' W 069°06'0 0.0
2018-Jan-09 01:59N 44°07' W 069°06'0 0.0
2018-Jan-09 01:29N 44°07' W 069°06'0 0.0
2018-Jan-09 00:59N 44°07' W 069°06'0 0.0
2018-Jan-09 00:28N 44°07' W 069°06'0 0.0
2018-Jan-08 23:59N 44°07' W 069°06'0 0.0
2018-Jan-08 23:28N 44°07' W 069°06'0 0.0
2018-Jan-08 22:57N 44°07' W 069°06'0 0.0
2018-Jan-08 22:28N 44°07' W 069°06'0 0.0
2018-Jan-08 21:59N 44°07' W 069°06'0 0.0
2018-Jan-08 21:29N 44°07' W 069°06'0 0.0
2018-Jan-08 20:58N 44°07' W 069°06'0 0.0
2018-Jan-08 20:29N 44°07' W 069°06'0 0.0
2018-Jan-08 20:00N 44°07' W 069°06'0 0.0
2018-Jan-08 19:27N 44°07' W 069°06'0 0.0
2018-Jan-08 18:58N 44°07' W 069°06'0 0.0
2018-Jan-08 18:30N 44°07' W 069°06'0 0.0
2018-Jan-08 17:58N 44°07' W 069°06'0 0.0
2018-Jan-08 17:29N 44°07' W 069°06'0 0.0
2018-Jan-08 16:58N 44°07' W 069°06'0 0.0
2018-Jan-08 16:29N 44°07' W 069°06'0 0.0
2018-Jan-08 16:00N 44°07' W 069°06'0 0.0
2018-Jan-08 15:27N 44°07' W 069°06'0 0.0
2018-Jan-08 14:58N 44°07' W 069°06'0 0.0
2018-Jan-08 14:30N 44°07' W 069°06'0 0.0
2018-Jan-08 13:58N 44°07' W 069°06'0 0.0
2018-Jan-08 13:28N 44°07' W 069°06'0 0.0
2018-Jan-08 13:00N 44°07' W 069°06'0 0.0
2018-Jan-08 12:30N 44°07' W 069°06'0 0.0
2018-Jan-08 11:57N 44°07' W 069°06'0 0.0
2018-Jan-08 11:30N 44°07' W 069°06'0 0.0
2018-Jan-08 10:58N 44°07' W 069°06'0 0.0
2018-Jan-08 10:29N 44°07' W 069°06'0 0.0
2018-Jan-08 10:00N 44°07' W 069°06'0 0.0
2018-Jan-08 09:28N 44°07' W 069°06'0 0.0
2018-Jan-08 08:58N 44°07' W 069°06'0 0.0
2018-Jan-08 08:30N 44°07' W 069°06'0 0.0
2018-Jan-08 07:58N 44°07' W 069°06'0 0.0
2018-Jan-08 07:28N 44°07' W 069°06'0 0.0
2018-Jan-08 06:59N 44°07' W 069°06'0 0.0
2018-Jan-08 06:30N 44°07' W 069°06'0 0.0
2018-Jan-08 05:57N 44°07' W 069°06'0 0.0
2018-Jan-08 05:28N 44°07' W 069°06'0 0.0
2018-Jan-08 04:59N 44°07' W 069°06'0 0.0
2018-Jan-08 04:30N 44°07' W 069°06'0 0.0
2018-Jan-08 03:58N 44°07' W 069°06'0 0.0
2018-Jan-08 03:29N 44°07' W 069°06'0 0.0
2018-Jan-08 03:00N 44°07' W 069°06'0 0.0
2018-Jan-08 02:28N 44°07' W 069°06'0 0.0
2018-Jan-08 01:59N 44°07' W 069°06'0 0.0
2018-Jan-08 01:29N 44°07' W 069°06'0 0.0
2018-Jan-08 01:00N 44°07' W 069°06'0 0.0
2018-Jan-08 00:27N 44°07' W 069°06'0 0.0
2018-Jan-07 23:58N 44°07' W 069°06'0 0.0
2018-Jan-07 23:29N 44°07' W 069°06'0 0.0
2018-Jan-07 23:00N 44°07' W 069°06'0 0.0
2018-Jan-07 22:28N 44°07' W 069°06'0 0.0
2018-Jan-07 22:00N 44°07' W 069°06'0 0.0
2018-Jan-07 21:30N 44°07' W 069°06'0 0.0
2018-Jan-07 20:58N 44°07' W 069°06'0 0.0
2018-Jan-07 20:30N 44°07' W 069°06'0 0.0
2018-Jan-07 19:58N 44°07' W 069°06'0 0.0
2018-Jan-07 19:29N 44°07' W 069°06'0 0.0
2018-Jan-07 19:00N 44°07' W 069°06'0 0.0
2018-Jan-07 18:28N 44°07' W 069°06'0 0.0
2018-Jan-07 17:59N 44°07' W 069°06'0 0.0
2018-Jan-07 17:27N 44°07' W 069°06'0 0.0
2018-Jan-07 16:57N 44°07' W 069°06'0 0.0
2018-Jan-07 16:29N 44°07' W 069°06'0 0.0
2018-Jan-07 15:57N 44°07' W 069°06'0 0.0
2018-Jan-07 15:26N 44°07' W 069°06'0 0.0
2018-Jan-07 14:57N 44°07' W 069°06'0 0.0
2018-Jan-07 14:28N 44°07' W 069°06'0 0.0
2018-Jan-07 13:59N 44°07' W 069°06'0 0.0
2018-Jan-07 13:28N 44°07' W 069°06'0 0.0
2018-Jan-07 12:59N 44°07' W 069°06'0 0.0
2018-Jan-07 12:29N 44°07' W 069°06'0 0.0
2018-Jan-07 11:59N 44°07' W 069°06'0 0.0
2018-Jan-07 11:27N 44°07' W 069°06'0 0.0
2018-Jan-07 10:59N 44°07' W 069°06'0 0.0
2018-Jan-07 10:30N 44°07' W 069°06'0 0.0
2018-Jan-07 10:00N 44°07' W 069°06'0 0.0
2018-Jan-07 09:29N 44°07' W 069°06'0 0.0
2018-Jan-07 08:58N 44°07' W 069°06'0 0.0
2018-Jan-07 08:29N 44°07' W 069°06'0 0.0
2018-Jan-07 07:59N 44°07' W 069°06'0 0.0
2018-Jan-07 07:30N 44°07' W 069°06'0 0.0
2018-Jan-07 07:00N 44°07' W 069°06'0 0.0
2018-Jan-07 06:29N 44°07' W 069°06'0 0.0
2018-Jan-07 05:58N 44°07' W 069°06'0 0.0
2018-Jan-07 05:29N 44°07' W 069°06'0 0.0
2018-Jan-07 04:59N 44°07' W 069°06'0 0.0
2018-Jan-07 04:29N 44°07' W 069°06'0 0.0
2018-Jan-07 03:59N 44°07' W 069°06'0 0.0
2018-Jan-07 03:30N 44°07' W 069°06'0 0.0
2018-Jan-07 02:58N 44°07' W 069°06'0 0.0
2018-Jan-07 02:30N 44°07' W 069°06'0 0.0
2018-Jan-07 02:00N 44°07' W 069°06'0 0.0
2018-Jan-07 01:29N 44°07' W 069°06'0 0.0
2018-Jan-07 00:29N 44°07' W 069°06'0 0.0
2018-Jan-07 00:00N 44°07' W 069°06'0 0.0
2018-Jan-06 23:29N 44°07' W 069°06'0 0.0
2018-Jan-06 23:00N 44°07' W 069°06'0 0.0
2018-Jan-06 22:29N 44°07' W 069°06'0 0.0
2018-Jan-06 21:58N 44°07' W 069°06'0 0.0
2018-Jan-06 21:29N 44°07' W 069°06'0 0.0
2018-Jan-06 20:59N 44°07' W 069°06'0 0.0
2018-Jan-06 20:29N 44°07' W 069°06'0 0.0
2018-Jan-06 20:00N 44°07' W 069°06'0 0.0
2018-Jan-06 19:30N 44°07' W 069°06'0 0.0
2018-Jan-06 18:59N 44°07' W 069°06'0 0.0
2018-Jan-06 18:29N 44°07' W 069°06'0 0.0
2018-Jan-06 17:59N 44°07' W 069°06'0 0.0
2018-Jan-06 17:28N 44°07' W 069°06'0 0.0
2018-Jan-06 16:59N 44°07' W 069°06'0 0.0
2018-Jan-06 16:29N 44°07' W 069°06'0 0.0
2018-Jan-06 16:00N 44°07' W 069°06'0 0.0
2018-Jan-06 15:29N 44°07' W 069°06'0 0.0
2018-Jan-06 14:58N 44°07' W 069°06'0 0.0
2018-Jan-06 14:29N 44°07' W 069°06'0 0.0
2018-Jan-06 13:59N 44°07' W 069°06'0 0.0
2018-Jan-06 13:29N 44°07' W 069°06'0 0.0
2018-Jan-06 13:00N 44°07' W 069°06'0 0.0
2018-Jan-06 12:30N 44°07' W 069°06'0 0.0
2018-Jan-06 11:59N 44°07' W 069°06'0 0.0
2018-Jan-06 11:30N 44°07' W 069°06'0 0.0
2018-Jan-06 10:59N 44°07' W 069°06'0 0.0
2018-Jan-06 10:30N 44°07' W 069°06'0 0.0
2018-Jan-06 09:59N 44°07' W 069°06'0 0.0
2018-Jan-06 09:30N 44°07' W 069°06'0 0.0
2018-Jan-06 08:58N 44°07' W 069°06'0 0.0
2018-Jan-06 08:29N 44°07' W 069°06'0 0.0
2018-Jan-06 08:00N 44°07' W 069°06'0 0.0
2018-Jan-06 07:30N 44°07' W 069°06'0 0.0
2018-Jan-06 06:58N 44°07' W 069°06'0 0.0
2018-Jan-06 06:29N 44°07' W 069°06'0 0.0
2018-Jan-06 05:59N 44°07' W 069°06'0 0.0
2018-Jan-06 05:29N 44°07' W 069°06'0 0.0
2018-Jan-06 04:59N 44°07' W 069°06'0 0.0
2018-Jan-06 04:29N 44°07' W 069°06'0 0.0
2018-Jan-06 03:59N 44°07' W 069°06'0 0.0
2018-Jan-06 03:29N 44°07' W 069°06'0 0.0
2018-Jan-06 03:00N 44°07' W 069°06'0 0.0
2018-Jan-06 02:30N 44°07' W 069°06'0 0.0
2018-Jan-06 02:00N 44°07' W 069°06'0 0.0
2018-Jan-06 01:27N 44°07' W 069°06'0 0.0
2018-Jan-06 00:59N 44°07' W 069°06'0 0.0
2018-Jan-06 00:27N 44°07' W 069°06'0 0.0
2018-Jan-05 23:59N 44°07' W 069°06'0 0.0
2018-Jan-05 23:30N 44°07' W 069°06'0 0.0
2018-Jan-05 22:58N 44°07' W 069°06'0 0.0
2018-Jan-05 22:30N 44°07' W 069°06'0 0.0
2018-Jan-05 22:00N 44°07' W 069°06'0 0.0
2018-Jan-05 21:29N 44°07' W 069°06'0 0.0
2018-Jan-05 21:00N 44°07' W 069°06'0 0.0
2018-Jan-05 20:30N 44°07' W 069°06'0 0.0
2018-Jan-05 19:59N 44°07' W 069°06'0 0.0
2018-Jan-05 19:29N 44°07' W 069°06'0 0.0
2018-Jan-05 19:00N 44°07' W 069°06'0 0.0
2018-Jan-05 18:29N 44°07' W 069°06'0 0.0
2018-Jan-05 17:59N 44°07' W 069°06'0 0.0
2018-Jan-05 17:30N 44°07' W 069°06'0 0.0
2018-Jan-05 16:59N 44°07' W 069°06'0 0.0
2018-Jan-05 16:28N 44°07' W 069°06'0 0.0
2018-Jan-05 15:58N 44°07' W 069°06'0 0.0
2018-Jan-05 15:30N 44°07' W 069°06'0 0.0
2018-Jan-05 14:59N 44°07' W 069°06'0 0.0
2018-Jan-05 14:29N 44°07' W 069°06'0 0.0
2018-Jan-05 13:59N 44°07' W 069°06'0 0.0
2018-Jan-05 13:28N 44°07' W 069°06'0 0.0
2018-Jan-05 12:59N 44°07' W 069°06'0 0.0
2018-Jan-05 12:30N 44°07' W 069°06'0 0.0
2018-Jan-05 12:00N 44°07' W 069°06'0 0.0
2018-Jan-05 11:30N 44°07' W 069°06'0 0.0
2018-Jan-05 10:59N 44°07' W 069°06'0 0.0
2018-Jan-05 10:29N 44°07' W 069°06'0 0.0
2018-Jan-05 09:58N 44°07' W 069°06'0 0.0
2018-Jan-05 09:29N 44°07' W 069°06'0 0.0
2018-Jan-05 08:57N 44°07' W 069°06'0 0.0
2018-Jan-05 08:28N 44°07' W 069°06'0 0.0
2018-Jan-05 08:00N 44°07' W 069°06'0 0.0
2018-Jan-05 07:28N 44°07' W 069°06'0 0.0
2018-Jan-05 07:00N 44°07' W 069°06'0 0.0
2018-Jan-05 06:30N 44°07' W 069°06'0 0.0
2018-Jan-05 05:59N 44°07' W 069°06'0 0.0
2018-Jan-05 05:30N 44°07' W 069°06'0 0.0
2018-Jan-05 05:00N 44°07' W 069°06'0 0.0
2018-Jan-05 04:29N 44°07' W 069°06'0 0.0
2018-Jan-05 03:58N 44°07' W 069°06'0 0.0
2018-Jan-05 03:30N 44°07' W 069°06'0 0.0
2018-Jan-05 02:59N 44°07' W 069°06'0 0.0
2018-Jan-05 02:29N 44°07' W 069°06'0 0.0
2018-Jan-05 02:00N 44°07' W 069°06'0 0.0
2018-Jan-05 01:29N 44°07' W 069°06'0 0.0
2018-Jan-05 00:59N 44°07' W 069°06'0 0.0
2018-Jan-05 00:29N 44°07' W 069°06'0 0.0
2018-Jan-04 23:59N 44°07' W 069°06'0 0.0
2018-Jan-04 23:30N 44°07' W 069°06'0 0.0
2018-Jan-04 22:59N 44°07' W 069°06'0 0.0
2018-Jan-04 22:28N 44°07' W 069°06'0 0.0
2018-Jan-04 22:00N 44°07' W 069°06'0 0.0
2018-Jan-04 21:29N 44°07' W 069°06'0 0.0
2018-Jan-04 21:00N 44°07' W 069°06'0 0.0
2018-Jan-04 20:30N 44°07' W 069°06'0 0.0
2018-Jan-04 19:59N 44°07' W 069°06'0 0.0
2018-Jan-04 19:30N 44°07' W 069°06'0 0.0
2018-Jan-04 19:00N 44°07' W 069°06'0 0.0
2018-Jan-04 18:30N 44°07' W 069°06'0 0.0
2018-Jan-04 17:58N 44°07' W 069°06'0 0.0
2018-Jan-04 17:29N 44°07' W 069°06'0 0.0
2018-Jan-04 16:59N 44°07' W 069°06'0 0.0
2018-Jan-04 16:29N 44°07' W 069°06'0 0.0
2018-Jan-04 16:00N 44°07' W 069°06'0 0.0
2018-Jan-04 15:29N 44°07' W 069°06'0 0.0
2018-Jan-04 15:00N 44°07' W 069°06'0 0.0
2018-Jan-04 14:29N 44°07' W 069°06'0 0.0
2018-Jan-04 13:58N 44°07' W 069°06'0 0.0
2018-Jan-04 13:30N 44°07' W 069°06'0 0.0
2018-Jan-04 13:00N 44°07' W 069°06'0 0.0
2018-Jan-04 12:30N 44°07' W 069°06'0 0.0
2018-Jan-04 11:58N 44°07' W 069°06'0 0.0
2018-Jan-04 11:29N 44°07' W 069°06'0 0.0
2018-Jan-04 11:00N 44°07' W 069°06'0 0.0
2018-Jan-04 10:30N 44°07' W 069°06'0 0.0
2018-Jan-04 10:00N 44°07' W 069°06'0 0.0
2018-Jan-04 09:29N 44°07' W 069°06'0 0.0
2018-Jan-04 09:00N 44°07' W 069°06'0 0.0
2018-Jan-04 08:30N 44°07' W 069°06'0 0.0
2018-Jan-04 07:59N 44°07' W 069°06'0 0.0
2018-Jan-04 07:30N 44°07' W 069°06'0 0.0
2018-Jan-04 07:00N 44°07' W 069°06'0 0.0
2018-Jan-04 06:30N 44°07' W 069°06'0 0.0
2018-Jan-04 05:59N 44°07' W 069°06'0 0.0
2018-Jan-04 05:30N 44°07' W 069°06'0 0.0
2018-Jan-04 04:58N 44°07' W 069°06'0 0.0
2018-Jan-04 04:30N 44°07' W 069°06'0 0.0
2018-Jan-04 04:00N 44°07' W 069°06'0 0.0
2018-Jan-04 03:30N 44°07' W 069°06'0 0.0
2018-Jan-04 03:00N 44°07' W 069°06'0 0.0
2018-Jan-04 02:30N 44°07' W 069°06'0 0.0
2018-Jan-04 01:58N 44°07' W 069°06'0 0.0
2018-Jan-04 01:29N 44°07' W 069°06'0 0.0
2018-Jan-04 01:00N 44°07' W 069°06'0 0.0
2018-Jan-04 00:30N 44°07' W 069°06'0 0.0
2018-Jan-03 23:59N 44°07' W 069°06'0 0.0
2018-Jan-03 23:30N 44°07' W 069°06'0 0.0
2018-Jan-03 23:00N 44°07' W 069°06'0 0.0
2018-Jan-03 22:29N 44°07' W 069°06'0 0.0
2018-Jan-03 21:58N 44°07' W 069°06'0 0.0
2018-Jan-03 21:30N 44°07' W 069°06'0 0.0
2018-Jan-03 21:00N 44°07' W 069°06'0 0.0
2018-Jan-03 20:29N 44°07' W 069°06'0 0.0
2018-Jan-03 19:59N 44°07' W 069°06'0 0.0
2018-Jan-03 19:30N 44°07' W 069°06'0 0.0
2018-Jan-03 19:00N 44°07' W 069°06'0 0.0
2018-Jan-03 18:30N 44°07' W 069°06'0 0.0
2018-Jan-03 18:00N 44°07' W 069°06'0 0.0
2018-Jan-03 17:28N 44°07' W 069°06'0 0.0
2018-Jan-03 17:00N 44°07' W 069°06'0 0.0
2018-Jan-03 16:28N 44°07' W 069°06'0 0.0
2018-Jan-03 16:00N 44°07' W 069°06'0 0.0
2018-Jan-03 15:29N 44°07' W 069°06'0 0.0
2018-Jan-03 14:59N 44°07' W 069°06'0 0.0
2018-Jan-03 14:29N 44°07' W 069°06'0 0.0
2018-Jan-03 13:59N 44°07' W 069°06'0 0.0
2018-Jan-03 13:29N 44°07' W 069°06'0 0.0
2018-Jan-03 13:00N 44°07' W 069°06'0 0.0
2018-Jan-03 12:29N 44°07' W 069°06'0 0.0
2018-Jan-03 12:00N 44°07' W 069°06'0 0.0
2018-Jan-03 11:30N 44°07' W 069°06'0 0.0
2018-Jan-03 11:00N 44°07' W 069°06'0 0.0
2018-Jan-03 10:29N 44°07' W 069°06'0 0.0
2018-Jan-03 09:59N 44°07' W 069°06'0 0.0
2018-Jan-03 09:30N 44°07' W 069°06'0 0.0
2018-Jan-03 08:59N 44°07' W 069°06'0 0.0
2018-Jan-03 08:30N 44°07' W 069°06'0 0.0
2018-Jan-03 08:00N 44°07' W 069°06'0 0.0
2018-Jan-03 07:30N 44°07' W 069°06'0 0.0
2018-Jan-03 07:00N 44°07' W 069°06'0 0.0
2018-Jan-03 06:29N 44°07' W 069°06'0 0.0
2018-Jan-03 05:59N 44°07' W 069°06'0 0.0
2018-Jan-03 05:30N 44°07' W 069°06'0 0.0
2018-Jan-03 04:59N 44°07' W 069°06'0 0.0
2018-Jan-03 04:29N 44°07' W 069°06'0 0.0
2018-Jan-03 04:00N 44°07' W 069°06'0 0.0
2018-Jan-03 03:29N 44°07' W 069°06'0 0.0
2018-Jan-03 03:00N 44°07' W 069°06'0 0.0
2018-Jan-03 02:29N 44°07' W 069°06'0 0.0
2018-Jan-03 02:00N 44°07' W 069°06'0 0.0
2018-Jan-03 01:30N 44°07' W 069°06'0 0.0
2018-Jan-03 01:00N 44°07' W 069°06'0 0.0
2018-Jan-03 00:29N 44°07' W 069°06'0 0.0
2018-Jan-02 23:59N 44°07' W 069°06'0 0.0
2018-Jan-02 23:30N 44°07' W 069°06'0 0.0
2018-Jan-02 22:59N 44°07' W 069°06'0 0.0
2018-Jan-02 22:30N 44°07' W 069°06'0 0.0
2018-Jan-02 21:59N 44°07' W 069°06'0 0.0
2018-Jan-02 21:29N 44°07' W 069°06'0 0.0
2018-Jan-02 20:59N 44°07' W 069°06'0 0.0
2018-Jan-02 20:30N 44°07' W 069°06'0 0.0
2018-Jan-02 19:59N 44°07' W 069°06'0 0.0
2018-Jan-02 19:29N 44°07' W 069°06'0 0.0
2018-Jan-02 19:00N 44°07' W 069°06'0 0.0
2018-Jan-02 18:30N 44°07' W 069°06'0 0.0
2018-Jan-02 18:00N 44°07' W 069°06'0 0.0
2018-Jan-02 17:29N 44°07' W 069°06'0 0.0
2018-Jan-02 16:58N 44°07' W 069°06'0 0.0
2018-Jan-02 16:30N 44°07' W 069°06'0 0.0
2018-Jan-02 15:59N 44°07' W 069°06'0 0.0
2018-Jan-02 15:28N 44°07' W 069°06'0 0.0
2018-Jan-02 14:59N 44°07' W 069°06'0 0.0
2018-Jan-02 14:30N 44°07' W 069°06'0 0.0
2018-Jan-02 14:00N 44°07' W 069°06'0 0.0
2018-Jan-02 13:29N 44°07' W 069°06'0 0.0
2018-Jan-02 12:58N 44°07' W 069°06'0 0.0
2018-Jan-02 12:30N 44°07' W 069°06'0 0.0
2018-Jan-02 12:00N 44°07' W 069°06'0 0.0
2018-Jan-02 11:30N 44°07' W 069°06'0 0.0
2018-Jan-02 10:58N 44°07' W 069°06'0 0.0
2018-Jan-02 10:30N 44°07' W 069°06'0 0.0
2018-Jan-02 10:00N 44°07' W 069°06'0 0.0
2018-Jan-02 09:28N 44°07' W 069°06'0 0.0
2018-Jan-02 08:29N 44°07' W 069°06'0 0.0
2018-Jan-02 07:58N 44°07' W 069°06'0 0.0
2018-Jan-02 07:30N 44°07' W 069°06'0 0.0
2018-Jan-02 06:54N 44°07' W 069°06'0 0.0
2018-Jan-02 06:30N 44°07' W 069°06'0 0.0
2018-Jan-02 05:59N 44°07' W 069°06'0 0.0
2018-Jan-02 05:30N 44°07' W 069°06'0 0.0
2018-Jan-02 04:28N 44°07' W 069°06'0 0.0
2018-Jan-02 03:59N 44°07' W 069°06'0 0.0
2018-Jan-02 03:29N 44°07' W 069°06'0 0.0
2018-Jan-02 02:59N 44°07' W 069°06'0 0.0
2018-Jan-02 02:29N 44°07' W 069°06'0 0.0
2018-Jan-02 02:01N 44°07' W 069°06'0 0.0
2018-Jan-02 01:29N 44°07' W 069°06'0 0.0
2018-Jan-02 00:59N 44°07' W 069°06'0 0.0
2018-Jan-02 00:30N 44°07' W 069°06'0 0.0
2018-Jan-01 23:59N 44°07' W 069°06'0 0.0
2018-Jan-01 23:30N 44°07' W 069°06'0 0.0
2018-Jan-01 22:58N 44°07' W 069°06'0 0.0
2018-Jan-01 22:29N 44°07' W 069°06'0 0.0
2018-Jan-01 21:59N 44°07' W 069°06'0 0.0
2018-Jan-01 21:29N 44°07' W 069°06'0 0.0
2018-Jan-01 20:59N 44°07' W 069°06'0 0.0
2018-Jan-01 20:29N 44°07' W 069°06'0 0.0
2018-Jan-01 19:58N 44°07' W 069°06'0 0.0
2018-Jan-01 19:29N 44°07' W 069°06'0 0.0
2018-Jan-01 18:58N 44°07' W 069°06'0 0.0
2018-Jan-01 18:30N 44°07' W 069°06'0 0.0
2018-Jan-01 17:58N 44°07' W 069°06'0 0.0
2018-Jan-01 17:28N 44°07' W 069°06'0 0.0
2018-Jan-01 15:00N 44°07' W 069°06'0 0.0
2018-Jan-01 14:30N 44°07' W 069°06'0 0.0
2018-Jan-01 13:59N 44°07' W 069°06'0 0.0
2018-Jan-01 13:30N 44°07' W 069°06'0 0.0
2018-Jan-01 13:00N 44°07' W 069°06'0 0.0
2018-Jan-01 12:00N 44°07' W 069°06'0 0.0
2018-Jan-01 11:29N 44°07' W 069°06'0 0.0
2018-Jan-01 10:59N 44°07' W 069°06'0 0.0
2018-Jan-01 10:28N 44°07' W 069°06'0 0.0
2018-Jan-01 09:59N 44°07' W 069°06'0 0.0
2018-Jan-01 09:30N 44°07' W 069°06'0 0.0
2018-Jan-01 08:28N 44°07' W 069°06'0 0.0
2018-Jan-01 07:59N 44°07' W 069°06'0 0.0
2018-Jan-01 07:30N 44°07' W 069°06'0 0.0
2018-Jan-01 07:00N 44°07' W 069°06'0 0.0
2018-Jan-01 06:00N 44°07' W 069°06'0 0.0
2018-Jan-01 05:30N 44°07' W 069°06'0 0.0
2018-Jan-01 04:59N 44°07' W 069°06'0 0.0
2018-Jan-01 03:58N 44°07' W 069°06'0 0.0
2018-Jan-01 03:29N 44°07' W 069°06'0 0.0
2018-Jan-01 02:59N 44°07' W 069°06'0 0.0
2018-Jan-01 02:30N 44°07' W 069°06'0 0.0
2018-Jan-01 02:00N 44°07' W 069°06'0 0.0
2018-Jan-01 01:29N 44°07' W 069°06'0 0.0
2018-Jan-01 00:28N 44°07' W 069°06'0 0.0
2017-Dec-31 21:00N 44°07' W 069°06'0 0.0
2017-Dec-31 20:29N 44°07' W 069°06'0 0.0
2017-Dec-31 19:58N 44°07' W 069°06'0 0.0
2017-Dec-31 19:30N 44°07' W 069°06'0 0.0
2017-Dec-31 19:00N 44°07' W 069°06'0 0.0
2017-Dec-31 18:30N 44°07' W 069°06'0 0.0
2017-Dec-31 18:00N 44°07' W 069°06'0 0.0
2017-Dec-31 17:30N 44°07' W 069°06'0 0.0
2017-Dec-31 16:59N 44°07' W 069°06'0 0.0
2017-Dec-31 16:30N 44°07' W 069°06'0 0.0
2017-Dec-31 15:58N 44°07' W 069°06'0 0.0
2017-Dec-31 15:28N 44°07' W 069°06'0 0.0
2017-Dec-31 15:00N 44°07' W 069°06'0 0.0
2017-Dec-31 14:30N 44°07' W 069°06'0 0.0
2017-Dec-31 14:00N 44°07' W 069°06'0 0.0
2017-Dec-31 13:30N 44°07' W 069°06'0 0.0
2017-Dec-31 12:59N 44°07' W 069°06'0 0.0
2017-Dec-31 12:29N 44°07' W 069°06'0 0.0
2017-Dec-31 11:59N 44°07' W 069°06'0 0.0
2017-Dec-31 11:30N 44°07' W 069°06'0 0.0
2017-Dec-31 10:59N 44°07' W 069°06'0 0.0
2017-Dec-31 10:29N 44°07' W 069°06'0 0.0
2017-Dec-31 09:58N 44°07' W 069°06'0 0.0
2017-Dec-31 09:30N 44°07' W 069°06'0 0.0
2017-Dec-31 09:00N 44°07' W 069°06'0 0.0
2017-Dec-31 08:30N 44°07' W 069°06'0 0.0
2017-Dec-31 08:00N 44°07' W 069°06'0 0.0
2017-Dec-31 07:29N 44°07' W 069°06'0 0.0
2017-Dec-31 07:00N 44°07' W 069°06'0 0.0
2017-Dec-31 06:28N 44°07' W 069°06'0 0.0
2017-Dec-31 06:00N 44°07' W 069°06'0 0.0
2017-Dec-31 05:28N 44°07' W 069°06'0 0.0
2017-Dec-31 04:58N 44°07' W 069°06'0 0.0
2017-Dec-31 04:30N 44°07' W 069°06'0 0.0
2017-Dec-31 04:00N 44°07' W 069°06'  

Dump ship's entire track history